Terminal Aerodrome Forecast
Issued by NWS Mt. Holly, NJ

Home | Current Version | Previous Version | Text Only | Print | Product List | Glossary On
Versions: 1 2 3 4 5 6 7 8 9 10 11 12 13 14 15 16 17 18 19 20
000
FTUS41 KPHI 211700
TAFABE
TAF
KABE 211721Z 2118/2218 VRB03KT P6SM FEW025 BKN200
     FM220100 23005KT P6SM BKN040
      TEMPO 2202/2204 -SHRA
     FM220400 29006KT P6SM BKN100
     FM221300 30012G20KT P6SM SCT050=

USA.gov is the U.S. government's official web portal to all federal, state and local government web resources and services.